sensor_id;sensor_type;location;lat;lon;timestamp;temperature;humidity
23719;DHT22;43322;52.230;5.702;2023-09-30T00:01:40;11.60;99.90
23719;DHT22;43322;52.230;5.702;2023-09-30T00:04:07;11.60;99.90
23719;DHT22;43322;52.230;5.702;2023-09-30T00:06:34;11.60;99.90
23719;DHT22;43322;52.230;5.702;2023-09-30T00:09:02;11.60;99.90
23719;DHT22;43322;52.230;5.702;2023-09-30T00:11:30;11.50;99.90
23719;DHT22;43322;52.230;5.702;2023-09-30T00:13:57;11.50;99.90
23719;DHT22;43322;52.230;5.702;2023-09-30T00:16:24;11.50;99.90
23719;DHT22;43322;52.230;5.702;2023-09-30T00:18:50;11.50;99.90
23719;DHT22;43322;52.230;5.702;2023-09-30T00:21:18;11.30;99.90
23719;DHT22;43322;52.230;5.702;2023-09-30T00:23:45;11.40;99.90
23719;DHT22;43322;52.230;5.702;2023-09-30T00:26:13;11.50;99.90
23719;DHT22;43322;52.230;5.702;2023-09-30T00:28:40;11.50;99.90
23719;DHT22;43322;52.230;5.702;2023-09-30T00:31:07;11.50;99.90
23719;DHT22;43322;52.230;5.702;2023-09-30T00:33:35;11.50;99.90
23719;DHT22;43322;52.230;5.702;2023-09-30T00:36:06;11.40;99.90
23719;DHT22;43322;52.230;5.702;2023-09-30T00:38:33;11.40;99.90
23719;DHT22;43322;52.230;5.702;2023-09-30T00:40:59;11.40;99.90
23719;DHT22;43322;52.230;5.702;2023-09-30T00:43:28;11.50;99.90
23719;DHT22;43322;52.230;5.702;2023-09-30T00:46:02;11.50;99.90
23719;DHT22;43322;52.230;5.702;2023-09-30T00:48:29;11.40;99.90
23719;DHT22;43322;52.230;5.702;2023-09-30T00:50:56;11.40;99.90
23719;DHT22;43322;52.230;5.702;2023-09-30T00:53:23;11.30;99.90
23719;DHT22;43322;52.230;5.702;2023-09-30T00:55:50;11.40;99.90
23719;DHT22;43322;52.230;5.702;2023-09-30T00:58:18;11.50;99.90
23719;DHT22;43322;52.230;5.702;2023-09-30T01:00:47;11.40;99.90
23719;DHT22;43322;52.230;5.702;2023-09-30T01:03:14;11.40;99.90
23719;DHT22;43322;52.230;5.702;2023-09-30T01:05:41;11.30;99.90
23719;DHT22;43322;52.230;5.702;2023-09-30T01:08:08;11.30;99.90
23719;DHT22;43322;52.230;5.702;2023-09-30T01:10:34;11.30;99.90
23719;DHT22;43322;52.230;5.702;2023-09-30T01:13:01;11.30;99.90
23719;DHT22;43322;52.230;5.702;2023-09-30T01:15:29;11.30;99.90
23719;DHT22;43322;52.230;5.702;2023-09-30T01:17:57;11.40;99.90
23719;DHT22;43322;52.230;5.702;2023-09-30T01:20:24;11.30;99.90
23719;DHT22;43322;52.230;5.702;2023-09-30T01:22:53;11.20;99.90
23719;DHT22;43322;52.230;5.702;2023-09-30T01:25:21;11.40;99.90
23719;DHT22;43322;52.230;5.702;2023-09-30T01:27:48;11.40;99.90
23719;DHT22;43322;52.230;5.702;2023-09-30T01:30:16;11.60;99.90
23719;DHT22;43322;52.230;5.702;2023-09-30T01:32:43;11.70;99.90
23719;DHT22;43322;52.230;5.702;2023-09-30T01:35:10;11.50;99.90
23719;DHT22;43322;52.230;5.702;2023-09-30T01:37:37;11.40;99.90
23719;DHT22;43322;52.230;5.702;2023-09-30T01:40:06;11.40;99.90
23719;DHT22;43322;52.230;5.702;2023-09-30T01:42:36;11.20;99.90
23719;DHT22;43322;52.230;5.702;2023-09-30T01:45:03;11.10;99.90
23719;DHT22;43322;52.230;5.702;2023-09-30T01:47:30;11.10;99.90
23719;DHT22;43322;52.230;5.702;2023-09-30T01:49:57;11.20;99.90
23719;DHT22;43322;52.230;5.702;2023-09-30T01:52:24;11.30;99.90
23719;DHT22;43322;52.230;5.702;2023-09-30T01:54:51;11.30;99.90
23719;DHT22;43322;52.230;5.702;2023-09-30T01:57:20;11.30;99.90
23719;DHT22;43322;52.230;5.702;2023-09-30T01:59:47;11.20;99.90
23719;DHT22;43322;52.230;5.702;2023-09-30T02:02:14;11.20;99.90
23719;DHT22;43322;52.230;5.702;2023-09-30T02:04:41;11.20;99.90
23719;DHT22;43322;52.230;5.702;2023-09-30T02:07:09;11.10;99.90
23719;DHT22;43322;52.230;5.702;2023-09-30T02:09:35;11.10;99.90
23719;DHT22;43322;52.230;5.702;2023-09-30T02:12:02;11.00;99.90
23719;DHT22;43322;52.230;5.702;2023-09-30T02:14:31;11.00;99.90
23719;DHT22;43322;52.230;5.702;2023-09-30T02:16:58;11.00;99.90
23719;DHT22;43322;52.230;5.702;2023-09-30T02:19:25;11.00;99.90
23719;DHT22;43322;52.230;5.702;2023-09-30T02:21:52;11.30;99.90
23719;DHT22;43322;52.230;5.702;2023-09-30T02:24:19;11.40;99.90
23719;DHT22;43322;52.230;5.702;2023-09-30T02:26:48;11.40;99.90
23719;DHT22;43322;52.230;5.702;2023-09-30T02:29:15;11.40;99.90
23719;DHT22;43322;52.230;5.702;2023-09-30T02:31:43;11.30;99.90
23719;DHT22;43322;52.230;5.702;2023-09-30T02:34:09;11.20;99.90
23719;DHT22;43322;52.230;5.702;2023-09-30T02:36:36;11.20;99.90
23719;DHT22;43322;52.230;5.702;2023-09-30T02:39:04;11.30;99.90
23719;DHT22;43322;52.230;5.702;2023-09-30T02:41:34;11.20;99.90
23719;DHT22;43322;52.230;5.702;2023-09-30T02:44:00;11.30;99.90
23719;DHT22;43322;52.230;5.702;2023-09-30T02:46:27;11.20;99.90
23719;DHT22;43322;52.230;5.702;2023-09-30T02:48:55;10.90;99.90
23719;DHT22;43322;52.230;5.702;2023-09-30T02:51:22;10.90;99.90
23719;DHT22;43322;52.230;5.702;2023-09-30T02:53:50;10.80;99.90
23719;DHT22;43322;52.230;5.702;2023-09-30T02:56:17;10.90;99.90
23719;DHT22;43322;52.230;5.702;2023-09-30T02:58:45;10.90;99.90
23719;DHT22;43322;52.230;5.702;2023-09-30T03:01:14;11.00;99.90
23719;DHT22;43322;52.230;5.702;2023-09-30T03:03:42;11.00;99.90
23719;DHT22;43322;52.230;5.702;2023-09-30T03:06:11;11.20;99.90
23719;DHT22;43322;52.230;5.702;2023-09-30T03:08:37;11.10;99.90
23719;DHT22;43322;52.230;5.702;2023-09-30T03:11:04;11.10;99.90
23719;DHT22;43322;52.230;5.702;2023-09-30T03:13:31;10.90;99.90
23719;DHT22;43322;52.230;5.702;2023-09-30T03:15:57;10.90;99.90
23719;DHT22;43322;52.230;5.702;2023-09-30T03:18:24;11.00;99.90
23719;DHT22;43322;52.230;5.702;2023-09-30T03:20:52;10.90;99.90
23719;DHT22;43322;52.230;5.702;2023-09-30T03:23:23;10.90;99.90
23719;DHT22;43322;52.230;5.702;2023-09-30T03:25:55;11.10;99.90
23719;DHT22;43322;52.230;5.702;2023-09-30T03:28:22;10.90;99.90
23719;DHT22;43322;52.230;5.702;2023-09-30T03:30:49;10.90;99.90
23719;DHT22;43322;52.230;5.702;2023-09-30T03:33:16;11.00;99.90
23719;DHT22;43322;52.230;5.702;2023-09-30T03:35:43;11.10;99.90
23719;DHT22;43322;52.230;5.702;2023-09-30T03:38:10;11.10;99.90
23719;DHT22;43322;52.230;5.702;2023-09-30T03:40:39;11.10;99.90
23719;DHT22;43322;52.230;5.702;2023-09-30T03:43:13;11.10;99.90
23719;DHT22;43322;52.230;5.702;2023-09-30T03:45:40;11.20;99.90
23719;DHT22;43322;52.230;5.702;2023-09-30T03:48:06;11.20;99.90
23719;DHT22;43322;52.230;5.702;2023-09-30T03:50:35;11.10;99.90
23719;DHT22;43322;52.230;5.702;2023-09-30T03:53:04;11.10;99.90
23719;DHT22;43322;52.230;5.702;2023-09-30T03:55:33;11.10;99.90
23719;DHT22;43322;52.230;5.702;2023-09-30T03:58:01;11.10;99.90
23719;DHT22;43322;52.230;5.702;2023-09-30T04:00:29;11.30;99.90
23719;DHT22;43322;52.230;5.702;2023-09-30T04:02:56;11.30;99.90
23719;DHT22;43322;52.230;5.702;2023-09-30T04:05:24;11.30;99.90
23719;DHT22;43322;52.230;5.702;2023-09-30T04:07:54;11.20;99.90
23719;DHT22;43322;52.230;5.702;2023-09-30T04:10:21;11.30;99.90
23719;DHT22;43322;52.230;5.702;2023-09-30T04:12:48;11.20;99.90
23719;DHT22;43322;52.230;5.702;2023-09-30T04:15:17;11.20;99.90
23719;DHT22;43322;52.230;5.702;2023-09-30T04:17:44;11.30;99.90
23719;DHT22;43322;52.230;5.702;2023-09-30T04:20:11;11.30;99.90
23719;DHT22;43322;52.230;5.702;2023-09-30T04:22:42;11.40;99.90
23719;DHT22;43322;52.230;5.702;2023-09-30T04:25:11;11.50;99.90
23719;DHT22;43322;52.230;5.702;2023-09-30T04:27:38;11.40;99.90
23719;DHT22;43322;52.230;5.702;2023-09-30T04:30:06;11.30;99.90
23719;DHT22;43322;52.230;5.702;2023-09-30T04:32:35;11.30;99.90
23719;DHT22;43322;52.230;5.702;2023-09-30T04:35:04;11.30;99.90
23719;DHT22;43322;52.230;5.702;2023-09-30T04:37:31;11.20;99.90
23719;DHT22;43322;52.230;5.702;2023-09-30T04:39:57;11.20;99.90
23719;DHT22;43322;52.230;5.702;2023-09-30T04:42:24;11.20;99.90
23719;DHT22;43322;52.230;5.702;2023-09-30T04:44:51;11.10;99.90
23719;DHT22;43322;52.230;5.702;2023-09-30T04:47:18;11.10;99.90
23719;DHT22;43322;52.230;5.702;2023-09-30T04:49:46;11.20;99.90
23719;DHT22;43322;52.230;5.702;2023-09-30T04:52:13;11.20;99.90
23719;DHT22;43322;52.230;5.702;2023-09-30T04:54:39;11.20;99.90
23719;DHT22;43322;52.230;5.702;2023-09-30T04:57:06;11.10;99.90
23719;DHT22;43322;52.230;5.702;2023-09-30T04:59:32;11.10;99.90
23719;DHT22;43322;52.230;5.702;2023-09-30T05:01:59;11.10;99.90
23719;DHT22;43322;52.230;5.702;2023-09-30T05:04:26;11.20;99.90
23719;DHT22;43322;52.230;5.702;2023-09-30T05:06:54;11.20;99.90
23719;DHT22;43322;52.230;5.702;2023-09-30T05:09:20;11.20;99.90
23719;DHT22;43322;52.230;5.702;2023-09-30T05:11:47;11.30;99.90
23719;DHT22;43322;52.230;5.702;2023-09-30T05:14:15;11.20;99.90
23719;DHT22;43322;52.230;5.702;2023-09-30T05:16:42;11.10;99.90
23719;DHT22;43322;52.230;5.702;2023-09-30T05:19:09;11.10;99.90
23719;DHT22;43322;52.230;5.702;2023-09-30T05:21:35;11.10;99.90
23719;DHT22;43322;52.230;5.702;2023-09-30T05:24:04;11.10;99.90
23719;DHT22;43322;52.230;5.702;2023-09-30T05:26:31;11.10;99.90
23719;DHT22;43322;52.230;5.702;2023-09-30T05:28:58;11.10;99.90
23719;DHT22;43322;52.230;5.702;2023-09-30T05:31:25;11.20;99.90
23719;DHT22;43322;52.230;5.702;2023-09-30T05:33:52;11.10;99.90
23719;DHT22;43322;52.230;5.702;2023-09-30T05:36:19;11.00;99.90
23719;DHT22;43322;52.230;5.702;2023-09-30T05:38:46;10.90;99.90
23719;DHT22;43322;52.230;5.702;2023-09-30T05:41:15;10.80;99.90
23719;DHT22;43322;52.230;5.702;2023-09-30T05:43:42;10.80;99.90
23719;DHT22;43322;52.230;5.702;2023-09-30T05:46:09;10.70;99.90
23719;DHT22;43322;52.230;5.702;2023-09-30T05:48:36;10.70;99.90
23719;DHT22;43322;52.230;5.702;2023-09-30T05:51:04;10.80;99.90
23719;DHT22;43322;52.230;5.702;2023-09-30T05:53:31;10.80;99.90
23719;DHT22;43322;52.230;5.702;2023-09-30T05:55:58;10.70;99.90
23719;DHT22;43322;52.230;5.702;2023-09-30T05:58:26;10.80;99.90
23719;DHT22;43322;52.230;5.702;2023-09-30T06:00:53;10.80;99.90
23719;DHT22;43322;52.230;5.702;2023-09-30T06:03:20;10.80;99.90
23719;DHT22;43322;52.230;5.702;2023-09-30T06:05:47;10.80;99.90
23719;DHT22;43322;52.230;5.702;2023-09-30T06:08:14;10.70;99.90
23719;DHT22;43322;52.230;5.702;2023-09-30T06:10:41;10.80;99.90
23719;DHT22;43322;52.230;5.702;2023-09-30T06:13:09;10.90;99.90
23719;DHT22;43322;52.230;5.702;2023-09-30T06:15:38;10.90;99.90
23719;DHT22;43322;52.230;5.702;2023-09-30T06:18:07;10.90;99.90
23719;DHT22;43322;52.230;5.702;2023-09-30T06:20:35;11.00;99.90
23719;DHT22;43322;52.230;5.702;2023-09-30T06:23:01;10.90;99.90
23719;DHT22;43322;52.230;5.702;2023-09-30T06:25:28;11.00;99.90
23719;DHT22;43322;52.230;5.702;2023-09-30T06:27:56;11.00;99.90
23719;DHT22;43322;52.230;5.702;2023-09-30T06:30:23;11.00;99.90
23719;DHT22;43322;52.230;5.702;2023-09-30T06:32:56;11.10;99.90
23719;DHT22;43322;52.230;5.702;2023-09-30T06:35:22;11.00;99.90
23719;DHT22;43322;52.230;5.702;2023-09-30T06:37:49;11.10;99.90
23719;DHT22;43322;52.230;5.702;2023-09-30T06:40:16;11.10;99.90
23719;DHT22;43322;52.230;5.702;2023-09-30T06:42:42;11.20;99.90
23719;DHT22;43322;52.230;5.702;2023-09-30T06:45:09;11.40;99.90
23719;DHT22;43322;52.230;5.702;2023-09-30T06:47:37;11.40;99.90
23719;DHT22;43322;52.230;5.702;2023-09-30T06:50:09;11.40;99.90
23719;DHT22;43322;52.230;5.702;2023-09-30T06:52:38;11.30;99.90
23719;DHT22;43322;52.230;5.702;2023-09-30T06:55:07;11.30;99.90
23719;DHT22;43322;52.230;5.702;2023-09-30T06:57:35;11.40;99.90
23719;DHT22;43322;52.230;5.702;2023-09-30T07:00:05;11.70;99.90
23719;DHT22;43322;52.230;5.702;2023-09-30T07:02:34;12.00;99.90
23719;DHT22;43322;52.230;5.702;2023-09-30T07:05:01;12.20;99.90
23719;DHT22;43322;52.230;5.702;2023-09-30T07:07:30;12.30;99.90
23719;DHT22;43322;52.230;5.702;2023-09-30T07:09:56;12.30;99.90
23719;DHT22;43322;52.230;5.702;2023-09-30T07:12:23;12.30;99.90
23719;DHT22;43322;52.230;5.702;2023-09-30T07:14:50;12.30;99.90
23719;DHT22;43322;52.230;5.702;2023-09-30T07:17:16;12.50;99.90
23719;DHT22;43322;52.230;5.702;2023-09-30T07:19:43;12.50;99.90
23719;DHT22;43322;52.230;5.702;2023-09-30T07:22:09;12.50;99.90
23719;DHT22;43322;52.230;5.702;2023-09-30T07:24:38;12.60;99.90
23719;DHT22;43322;52.230;5.702;2023-09-30T07:27:05;12.60;99.90
23719;DHT22;43322;52.230;5.702;2023-09-30T07:29:32;12.60;99.90
23719;DHT22;43322;52.230;5.702;2023-09-30T07:31:58;12.70;99.90
23719;DHT22;43322;52.230;5.702;2023-09-30T07:34:25;12.80;99.90
23719;DHT22;43322;52.230;5.702;2023-09-30T07:36:52;12.80;99.90
23719;DHT22;43322;52.230;5.702;2023-09-30T07:39:18;12.80;99.90
23719;DHT22;43322;52.230;5.702;2023-09-30T07:41:47;12.90;99.90
23719;DHT22;43322;52.230;5.702;2023-09-30T07:44:13;13.00;99.90
23719;DHT22;43322;52.230;5.702;2023-09-30T07:46:40;12.90;99.90
23719;DHT22;43322;52.230;5.702;2023-09-30T07:49:08;13.10;99.90
23719;DHT22;43322;52.230;5.702;2023-09-30T07:51:35;13.20;99.90
23719;DHT22;43322;52.230;5.702;2023-09-30T07:54:03;13.30;99.90
23719;DHT22;43322;52.230;5.702;2023-09-30T07:56:30;13.30;99.90
23719;DHT22;43322;52.230;5.702;2023-09-30T07:58:58;13.40;99.90
23719;DHT22;43322;52.230;5.702;2023-09-30T08:01:25;13.60;99.90
23719;DHT22;43322;52.230;5.702;2023-09-30T08:03:51;13.90;99.90
23719;DHT22;43322;52.230;5.702;2023-09-30T08:06:18;14.00;99.90
23719;DHT22;43322;52.230;5.702;2023-09-30T08:08:44;14.10;99.90
23719;DHT22;43322;52.230;5.702;2023-09-30T08:11:12;14.10;99.90
23719;DHT22;43322;52.230;5.702;2023-09-30T08:13:39;14.20;99.90
23719;DHT22;43322;52.230;5.702;2023-09-30T08:16:07;14.30;99.90
23719;DHT22;43322;52.230;5.702;2023-09-30T08:18:33;14.40;99.90
23719;DHT22;43322;52.230;5.702;2023-09-30T08:21:00;14.30;99.90
23719;DHT22;43322;52.230;5.702;2023-09-30T08:23:26;14.40;99.90
23719;DHT22;43322;52.230;5.702;2023-09-30T08:25:57;14.40;99.90
23719;DHT22;43322;52.230;5.702;2023-09-30T08:28:24;14.50;99.90
23719;DHT22;43322;52.230;5.702;2023-09-30T08:30:50;14.60;99.90
23719;DHT22;43322;52.230;5.702;2023-09-30T08:33:21;14.80;99.90
23719;DHT22;43322;52.230;5.702;2023-09-30T08:35:48;14.90;99.90
23719;DHT22;43322;52.230;5.702;2023-09-30T08:38:15;15.10;99.90
23719;DHT22;43322;52.230;5.702;2023-09-30T08:40:44;15.00;99.90
23719;DHT22;43322;52.230;5.702;2023-09-30T08:43:12;15.10;99.90
23719;DHT22;43322;52.230;5.702;2023-09-30T08:45:41;15.00;99.90
23719;DHT22;43322;52.230;5.702;2023-09-30T08:48:10;15.10;99.90
23719;DHT22;43322;52.230;5.702;2023-09-30T08:50:39;15.10;99.90
23719;DHT22;43322;52.230;5.702;2023-09-30T08:53:09;15.10;99.90
23719;DHT22;43322;52.230;5.702;2023-09-30T08:55:38;15.10;99.90
23719;DHT22;43322;52.230;5.702;2023-09-30T08:58:06;15.10;99.90
23719;DHT22;43322;52.230;5.702;2023-09-30T09:00:34;15.30;99.90
23719;DHT22;43322;52.230;5.702;2023-09-30T09:03:00;15.30;99.90
23719;DHT22;43322;52.230;5.702;2023-09-30T09:05:27;15.30;99.90
23719;DHT22;43322;52.230;5.702;2023-09-30T09:07:55;15.50;99.90
23719;DHT22;43322;52.230;5.702;2023-09-30T09:10:22;15.50;99.90
23719;DHT22;43322;52.230;5.702;2023-09-30T09:12:55;15.50;99.90
23719;DHT22;43322;52.230;5.702;2023-09-30T09:15:24;15.50;99.90
23719;DHT22;43322;52.230;5.702;2023-09-30T09:17:51;15.50;99.90
23719;DHT22;43322;52.230;5.702;2023-09-30T09:20:19;15.60;99.90
23719;DHT22;43322;52.230;5.702;2023-09-30T09:22:47;15.60;99.90
23719;DHT22;43322;52.230;5.702;2023-09-30T09:25:17;15.70;99.90
23719;DHT22;43322;52.230;5.702;2023-09-30T09:27:44;15.70;99.90
23719;DHT22;43322;52.230;5.702;2023-09-30T09:30:18;15.70;99.90
23719;DHT22;43322;52.230;5.702;2023-09-30T09:32:58;15.90;99.90
23719;DHT22;43322;52.230;5.702;2023-09-30T09:35:26;16.00;99.90
23719;DHT22;43322;52.230;5.702;2023-09-30T09:37:57;16.10;99.90
23719;DHT22;43322;52.230;5.702;2023-09-30T09:40:28;16.00;99.90
23719;DHT22;43322;52.230;5.702;2023-09-30T09:42:55;16.10;99.90
23719;DHT22;43322;52.230;5.702;2023-09-30T09:45:24;16.10;99.90
23719;DHT22;43322;52.230;5.702;2023-09-30T09:47:52;16.10;99.90
23719;DHT22;43322;52.230;5.702;2023-09-30T09:50:20;16.30;99.90
23719;DHT22;43322;52.230;5.702;2023-09-30T09:52:49;16.40;99.90
23719;DHT22;43322;52.230;5.702;2023-09-30T09:55:17;16.50;99.90
23719;DHT22;43322;52.230;5.702;2023-09-30T09:57:46;16.60;99.90
23719;DHT22;43322;52.230;5.702;2023-09-30T10:00:15;16.80;99.90
23719;DHT22;43322;52.230;5.702;2023-09-30T10:02:44;16.90;99.90
23719;DHT22;43322;52.230;5.702;2023-09-30T10:05:12;17.20;99.90
23719;DHT22;43322;52.230;5.702;2023-09-30T10:07:44;17.40;99.90
23719;DHT22;43322;52.230;5.702;2023-09-30T10:10:15;17.60;99.90
23719;DHT22;43322;52.230;5.702;2023-09-30T10:12:42;17.50;99.90
23719;DHT22;43322;52.230;5.702;2023-09-30T10:15:36;17.50;99.90
23719;DHT22;43322;52.230;5.702;2023-09-30T10:18:04;17.70;99.90
23719;DHT22;43322;52.230;5.702;2023-09-30T10:20:33;17.70;99.90
23719;DHT22;43322;52.230;5.702;2023-09-30T10:23:22;17.90;99.90
23719;DHT22;43322;52.230;5.702;2023-09-30T10:25:51;17.90;99.90
23719;DHT22;43322;52.230;5.702;2023-09-30T10:28:36;17.90;99.90
23719;DHT22;43322;52.230;5.702;2023-09-30T10:31:15;17.90;99.90
23719;DHT22;43322;52.230;5.702;2023-09-30T10:34:18;17.80;99.90
23719;DHT22;43322;52.230;5.702;2023-09-30T10:36:46;17.70;99.90
23719;DHT22;43322;52.230;5.702;2023-09-30T10:39:14;17.70;99.90
23719;DHT22;43322;52.230;5.702;2023-09-30T10:41:49;17.70;99.90
23719;DHT22;43322;52.230;5.702;2023-09-30T10:44:35;18.00;99.90
23719;DHT22;43322;52.230;5.702;2023-09-30T10:47:35;18.20;99.90
23719;DHT22;43322;52.230;5.702;2023-09-30T10:50:02;18.40;99.90
23719;DHT22;43322;52.230;5.702;2023-09-30T10:52:30;18.70;99.90
23719;DHT22;43322;52.230;5.702;2023-09-30T10:55:02;19.00;99.90
23719;DHT22;43322;52.230;5.702;2023-09-30T10:57:30;19.10;99.90
23719;DHT22;43322;52.230;5.702;2023-09-30T11:00:10;19.90;99.90
23719;DHT22;43322;52.230;5.702;2023-09-30T11:02:49;20.90;99.90
23719;DHT22;43322;52.230;5.702;2023-09-30T11:05:17;21.80;99.90
23719;DHT22;43322;52.230;5.702;2023-09-30T11:07:48;22.50;99.90
23719;DHT22;43322;52.230;5.702;2023-09-30T11:10:17;23.00;99.90
23719;DHT22;43322;52.230;5.702;2023-09-30T11:12:54;23.60;99.90
23719;DHT22;43322;52.230;5.702;2023-09-30T11:15:21;23.30;99.90
23719;DHT22;43322;52.230;5.702;2023-09-30T11:17:49;22.80;99.90
23719;DHT22;43322;52.230;5.702;2023-09-30T11:20:16;23.20;99.90
23719;DHT22;43322;52.230;5.702;2023-09-30T11:22:43;23.60;99.90
23719;DHT22;43322;52.230;5.702;2023-09-30T11:25:15;24.20;99.90
23719;DHT22;43322;52.230;5.702;2023-09-30T11:27:43;24.10;99.90
23719;DHT22;43322;52.230;5.702;2023-09-30T11:30:10;24.60;99.90
23719;DHT22;43322;52.230;5.702;2023-09-30T11:32:38;24.70;99.90
23719;DHT22;43322;52.230;5.702;2023-09-30T11:35:10;24.40;99.90
23719;DHT22;43322;52.230;5.702;2023-09-30T11:37:47;24.80;99.90
23719;DHT22;43322;52.230;5.702;2023-09-30T11:40:14;24.30;99.90
23719;DHT22;43322;52.230;5.702;2023-09-30T11:42:41;23.40;99.90
23719;DHT22;43322;52.230;5.702;2023-09-30T11:45:20;21.60;99.90
23719;DHT22;43322;52.230;5.702;2023-09-30T11:47:48;20.80;99.90
23719;DHT22;43322;52.230;5.702;2023-09-30T11:50:16;20.00;99.90
23719;DHT22;43322;52.230;5.702;2023-09-30T11:52:44;19.60;99.90
23719;DHT22;43322;52.230;5.702;2023-09-30T11:55:12;19.30;99.90
23719;DHT22;43322;52.230;5.702;2023-09-30T11:57:39;19.50;99.90
23719;DHT22;43322;52.230;5.702;2023-09-30T12:00:06;19.60;99.90
23719;DHT22;43322;52.230;5.702;2023-09-30T12:02:39;19.40;99.90
23719;DHT22;43322;52.230;5.702;2023-09-30T12:05:06;19.70;99.90
23719;DHT22;43322;52.230;5.702;2023-09-30T12:07:38;21.00;99.90
23719;DHT22;43322;52.230;5.702;2023-09-30T12:10:07;21.90;99.90
23719;DHT22;43322;52.230;5.702;2023-09-30T12:12:34;22.90;99.90
23719;DHT22;43322;52.230;5.702;2023-09-30T12:15:00;23.50;99.90
23719;DHT22;43322;52.230;5.702;2023-09-30T12:17:27;24.00;99.90
23719;DHT22;43322;52.230;5.702;2023-09-30T12:19:54;24.50;99.90
23719;DHT22;43322;52.230;5.702;2023-09-30T12:22:21;24.80;99.90
23719;DHT22;43322;52.230;5.702;2023-09-30T12:24:49;25.20;99.90
23719;DHT22;43322;52.230;5.702;2023-09-30T12:27:16;24.90;99.90
23719;DHT22;43322;52.230;5.702;2023-09-30T12:29:43;24.90;99.90
23719;DHT22;43322;52.230;5.702;2023-09-30T12:32:09;24.40;99.90
23719;DHT22;43322;52.230;5.702;2023-09-30T12:34:36;23.50;99.90
23719;DHT22;43322;52.230;5.702;2023-09-30T12:37:02;22.80;99.90
23719;DHT22;43322;52.230;5.702;2023-09-30T12:39:29;22.20;99.90
23719;DHT22;43322;52.230;5.702;2023-09-30T12:41:59;21.50;99.90
23719;DHT22;43322;52.230;5.702;2023-09-30T12:44:26;21.00;99.90
23719;DHT22;43322;52.230;5.702;2023-09-30T12:46:53;20.50;99.90
23719;DHT22;43322;52.230;5.702;2023-09-30T12:49:20;20.50;99.90
23719;DHT22;43322;52.230;5.702;2023-09-30T12:51:47;20.30;99.90
23719;DHT22;43322;52.230;5.702;2023-09-30T12:54:13;20.10;99.90
23719;DHT22;43322;52.230;5.702;2023-09-30T12:56:43;19.80;99.90
23719;DHT22;43322;52.230;5.702;2023-09-30T12:59:12;19.70;99.90
23719;DHT22;43322;52.230;5.702;2023-09-30T13:01:39;19.50;99.90
23719;DHT22;43322;52.230;5.702;2023-09-30T13:04:06;19.30;99.90
23719;DHT22;43322;52.230;5.702;2023-09-30T13:06:33;19.20;99.90
23719;DHT22;43322;52.230;5.702;2023-09-30T13:09:00;19.10;99.90
23719;DHT22;43322;52.230;5.702;2023-09-30T13:11:29;19.40;99.90
23719;DHT22;43322;52.230;5.702;2023-09-30T13:13:55;19.70;99.90
23719;DHT22;43322;52.230;5.702;2023-09-30T13:16:23;19.90;99.90
23719;DHT22;43322;52.230;5.702;2023-09-30T13:18:50;20.00;99.90
23719;DHT22;43322;52.230;5.702;2023-09-30T13:21:17;20.00;99.90
23719;DHT22;43322;52.230;5.702;2023-09-30T13:23:44;20.20;99.90
23719;DHT22;43322;52.230;5.702;2023-09-30T13:26:10;20.30;99.90
23719;DHT22;43322;52.230;5.702;2023-09-30T13:28:37;20.20;99.90
23719;DHT22;43322;52.230;5.702;2023-09-30T13:31:05;20.00;99.90
23719;DHT22;43322;52.230;5.702;2023-09-30T13:33:33;20.00;99.90
23719;DHT22;43322;52.230;5.702;2023-09-30T13:35:59;19.80;99.90
23719;DHT22;43322;52.230;5.702;2023-09-30T13:38:27;19.70;99.90
23719;DHT22;43322;52.230;5.702;2023-09-30T13:40:54;19.70;99.90
23719;DHT22;43322;52.230;5.702;2023-09-30T13:43:21;19.60;99.90
23719;DHT22;43322;52.230;5.702;2023-09-30T13:45:48;19.60;99.90
23719;DHT22;43322;52.230;5.702;2023-09-30T13:48:15;19.80;99.90
23719;DHT22;43322;52.230;5.702;2023-09-30T13:50:43;19.80;99.90
23719;DHT22;43322;52.230;5.702;2023-09-30T13:53:10;19.90;99.90
23719;DHT22;43322;52.230;5.702;2023-09-30T13:55:38;19.90;99.90
23719;DHT22;43322;52.230;5.702;2023-09-30T13:58:04;19.90;99.90
23719;DHT22;43322;52.230;5.702;2023-09-30T14:00:31;19.90;99.90
23719;DHT22;43322;52.230;5.702;2023-09-30T14:02:59;19.90;99.90
23719;DHT22;43322;52.230;5.702;2023-09-30T14:05:26;20.00;99.90
23719;DHT22;43322;52.230;5.702;2023-09-30T14:07:54;19.90;99.90
23719;DHT22;43322;52.230;5.702;2023-09-30T14:10:21;19.80;99.90
23719;DHT22;43322;52.230;5.702;2023-09-30T14:12:47;19.80;99.90
23719;DHT22;43322;52.230;5.702;2023-09-30T14:15:14;19.60;99.90
23719;DHT22;43322;52.230;5.702;2023-09-30T14:17:41;19.60;99.90
23719;DHT22;43322;52.230;5.702;2023-09-30T14:20:08;19.50;99.90
23719;DHT22;43322;52.230;5.702;2023-09-30T14:22:35;19.30;99.90
23719;DHT22;43322;52.230;5.702;2023-09-30T14:25:04;19.20;99.90
23719;DHT22;43322;52.230;5.702;2023-09-30T14:27:31;19.20;99.90
23719;DHT22;43322;52.230;5.702;2023-09-30T14:29:57;19.00;99.90
23719;DHT22;43322;52.230;5.702;2023-09-30T14:32:26;18.90;99.90
23719;DHT22;43322;52.230;5.702;2023-09-30T14:34:52;18.90;99.90
23719;DHT22;43322;52.230;5.702;2023-09-30T14:37:18;18.80;99.90
23719;DHT22;43322;52.230;5.702;2023-09-30T14:39:45;18.80;99.90
23719;DHT22;43322;52.230;5.702;2023-09-30T14:42:13;18.80;99.90
23719;DHT22;43322;52.230;5.702;2023-09-30T14:44:39;18.70;99.90
23719;DHT22;43322;52.230;5.702;2023-09-30T14:47:06;18.70;99.90
23719;DHT22;43322;52.230;5.702;2023-09-30T14:49:34;18.60;99.90
23719;DHT22;43322;52.230;5.702;2023-09-30T14:52:00;18.60;99.90
23719;DHT22;43322;52.230;5.702;2023-09-30T14:54:28;18.70;99.90
23719;DHT22;43322;52.230;5.702;2023-09-30T14:56:55;18.70;99.90
23719;DHT22;43322;52.230;5.702;2023-09-30T14:59:24;18.50;99.90
23719;DHT22;43322;52.230;5.702;2023-09-30T15:01:51;18.50;99.90
23719;DHT22;43322;52.230;5.702;2023-09-30T15:04:18;18.50;99.90
23719;DHT22;43322;52.230;5.702;2023-09-30T15:06:45;18.40;99.90
23719;DHT22;43322;52.230;5.702;2023-09-30T15:09:11;18.40;99.90
23719;DHT22;43322;52.230;5.702;2023-09-30T15:11:39;18.40;99.90
23719;DHT22;43322;52.230;5.702;2023-09-30T15:14:06;18.40;99.90
23719;DHT22;43322;52.230;5.702;2023-09-30T15:16:34;18.50;99.90
23719;DHT22;43322;52.230;5.702;2023-09-30T15:19:01;18.40;99.90
23719;DHT22;43322;52.230;5.702;2023-09-30T15:21:27;18.50;99.90
23719;DHT22;43322;52.230;5.702;2023-09-30T15:23:54;18.40;99.90
23719;DHT22;43322;52.230;5.702;2023-09-30T15:26:21;18.50;99.90
23719;DHT22;43322;52.230;5.702;2023-09-30T15:28:47;18.50;99.90
23719;DHT22;43322;52.230;5.702;2023-09-30T15:31:14;18.50;99.90
23719;DHT22;43322;52.230;5.702;2023-09-30T15:33:42;18.40;99.90
23719;DHT22;43322;52.230;5.702;2023-09-30T15:36:10;18.50;99.90